sensor_id;sensor_type;location;lat;lon;timestamp;temperature;humidity
3348;DHT22;1687;49.540;8.574;2023-04-15T00:00:38;8.50;57.30
3348;DHT22;1687;49.540;8.574;2023-04-15T00:03:04;8.50;57.40
3348;DHT22;1687;49.540;8.574;2023-04-15T00:05:31;8.40;57.40
3348;DHT22;1687;49.540;8.574;2023-04-15T00:07:59;8.50;57.50
3348;DHT22;1687;49.540;8.574;2023-04-15T00:10:26;8.40;57.60
3348;DHT22;1687;49.540;8.574;2023-04-15T00:12:52;8.40;58.10
3348;DHT22;1687;49.540;8.574;2023-04-15T00:15:18;8.40;57.70
3348;DHT22;1687;49.540;8.574;2023-04-15T00:17:44;8.30;57.70
3348;DHT22;1687;49.540;8.574;2023-04-15T00:20:10;8.30;57.80
3348;DHT22;1687;49.540;8.574;2023-04-15T00:22:36;8.40;58.00
3348;DHT22;1687;49.540;8.574;2023-04-15T00:25:02;8.40;58.10
3348;DHT22;1687;49.540;8.574;2023-04-15T00:27:27;8.40;58.00
3348;DHT22;1687;49.540;8.574;2023-04-15T00:29:54;8.40;58.00
3348;DHT22;1687;49.540;8.574;2023-04-15T00:32:20;8.30;58.00
3348;DHT22;1687;49.540;8.574;2023-04-15T00:34:46;8.20;57.70
3348;DHT22;1687;49.540;8.574;2023-04-15T00:37:12;8.10;57.90
3348;DHT22;1687;49.540;8.574;2023-04-15T00:39:37;8.00;57.90
3348;DHT22;1687;49.540;8.574;2023-04-15T00:42:04;8.00;58.10
3348;DHT22;1687;49.540;8.574;2023-04-15T00:44:30;8.00;58.30
3348;DHT22;1687;49.540;8.574;2023-04-15T00:46:56;8.00;58.30
3348;DHT22;1687;49.540;8.574;2023-04-15T00:49:21;8.00;58.40
3348;DHT22;1687;49.540;8.574;2023-04-15T00:51:48;7.90;58.40
3348;DHT22;1687;49.540;8.574;2023-04-15T00:54:13;8.00;58.50
3348;DHT22;1687;49.540;8.574;2023-04-15T00:56:41;7.80;58.10
3348;DHT22;1687;49.540;8.574;2023-04-15T00:59:07;7.70;58.20
3348;DHT22;1687;49.540;8.574;2023-04-15T01:01:35;7.60;58.40
3348;DHT22;1687;49.540;8.574;2023-04-15T01:04:01;7.60;58.50
3348;DHT22;1687;49.540;8.574;2023-04-15T01:06:28;7.60;58.70
3348;DHT22;1687;49.540;8.574;2023-04-15T01:08:56;7.60;58.60
3348;DHT22;1687;49.540;8.574;2023-04-15T01:11:22;7.60;58.60
3348;DHT22;1687;49.540;8.574;2023-04-15T01:13:49;7.30;58.00
3348;DHT22;1687;49.540;8.574;2023-04-15T01:16:16;7.00;58.00
3348;DHT22;1687;49.540;8.574;2023-04-15T01:18:43;7.00;58.80
3348;DHT22;1687;49.540;8.574;2023-04-15T01:21:10;7.00;59.00
3348;DHT22;1687;49.540;8.574;2023-04-15T01:23:37;7.00;58.70
3348;DHT22;1687;49.540;8.574;2023-04-15T01:26:03;6.80;58.40
3348;DHT22;1687;49.540;8.574;2023-04-15T01:28:31;6.70;58.70
3348;DHT22;1687;49.540;8.574;2023-04-15T01:31:10;6.70;59.10
3348;DHT22;1687;49.540;8.574;2023-04-15T01:33:38;6.70;59.30
3348;DHT22;1687;49.540;8.574;2023-04-15T01:36:06;6.80;59.30
3348;DHT22;1687;49.540;8.574;2023-04-15T01:38:33;6.80;59.10
3348;DHT22;1687;49.540;8.574;2023-04-15T01:40:59;6.60;58.80
3348;DHT22;1687;49.540;8.574;2023-04-15T01:43:25;6.50;58.90
3348;DHT22;1687;49.540;8.574;2023-04-15T01:45:51;6.40;59.70
3348;DHT22;1687;49.540;8.574;2023-04-15T01:48:17;6.40;59.50
3348;DHT22;1687;49.540;8.574;2023-04-15T01:50:43;6.50;59.60
3348;DHT22;1687;49.540;8.574;2023-04-15T01:53:09;6.60;59.80
3348;DHT22;1687;49.540;8.574;2023-04-15T01:55:35;6.60;59.80
3348;DHT22;1687;49.540;8.574;2023-04-15T01:58:01;6.70;59.80
3348;DHT22;1687;49.540;8.574;2023-04-15T02:00:27;6.70;59.70
3348;DHT22;1687;49.540;8.574;2023-04-15T02:02:53;6.70;59.80
3348;DHT22;1687;49.540;8.574;2023-04-15T02:05:18;6.70;59.90
3348;DHT22;1687;49.540;8.574;2023-04-15T02:07:44;6.80;59.90
3348;DHT22;1687;49.540;8.574;2023-04-15T02:10:10;6.70;59.70
3348;DHT22;1687;49.540;8.574;2023-04-15T02:12:38;6.60;59.70
3348;DHT22;1687;49.540;8.574;2023-04-15T02:15:04;6.60;59.80
3348;DHT22;1687;49.540;8.574;2023-04-15T02:17:33;6.60;60.00
3348;DHT22;1687;49.540;8.574;2023-04-15T02:19:59;6.70;60.10
3348;DHT22;1687;49.540;8.574;2023-04-15T02:22:25;6.70;60.20
3348;DHT22;1687;49.540;8.574;2023-04-15T02:24:52;6.70;60.20
3348;DHT22;1687;49.540;8.574;2023-04-15T02:27:18;6.60;59.80
3348;DHT22;1687;49.540;8.574;2023-04-15T02:29:44;6.50;60.00
3348;DHT22;1687;49.540;8.574;2023-04-15T02:32:13;6.50;60.10
3348;DHT22;1687;49.540;8.574;2023-04-15T02:34:39;6.50;60.50
3348;DHT22;1687;49.540;8.574;2023-04-15T02:37:08;6.50;60.40
3348;DHT22;1687;49.540;8.574;2023-04-15T02:39:34;6.40;59.80
3348;DHT22;1687;49.540;8.574;2023-04-15T02:42:00;6.30;59.90
3348;DHT22;1687;49.540;8.574;2023-04-15T02:44:26;6.20;60.20
3348;DHT22;1687;49.540;8.574;2023-04-15T02:46:53;6.20;60.40
3348;DHT22;1687;49.540;8.574;2023-04-15T02:49:21;6.30;60.70
3348;DHT22;1687;49.540;8.574;2023-04-15T02:51:47;6.30;60.50
3348;DHT22;1687;49.540;8.574;2023-04-15T02:54:20;6.10;59.90
3348;DHT22;1687;49.540;8.574;2023-04-15T02:56:50;6.10;60.50
3348;DHT22;1687;49.540;8.574;2023-04-15T02:59:19;6.10;60.80
3348;DHT22;1687;49.540;8.574;2023-04-15T03:01:45;6.20;60.90
3348;DHT22;1687;49.540;8.574;2023-04-15T03:04:11;6.20;60.80
3348;DHT22;1687;49.540;8.574;2023-04-15T03:06:37;6.20;60.80
3348;DHT22;1687;49.540;8.574;2023-04-15T03:09:03;6.20;61.80
3348;DHT22;1687;49.540;8.574;2023-04-15T03:11:28;6.20;60.90
3348;DHT22;1687;49.540;8.574;2023-04-15T03:13:56;6.20;60.50
3348;DHT22;1687;49.540;8.574;2023-04-15T03:16:22;6.00;60.60
3348;DHT22;1687;49.540;8.574;2023-04-15T03:18:48;6.00;61.10
3348;DHT22;1687;49.540;8.574;2023-04-15T03:21:14;6.10;61.30
3348;DHT22;1687;49.540;8.574;2023-04-15T03:23:40;6.20;61.50
3348;DHT22;1687;49.540;8.574;2023-04-15T03:26:05;6.10;61.10
3348;DHT22;1687;49.540;8.574;2023-04-15T03:28:31;6.00;61.10
3348;DHT22;1687;49.540;8.574;2023-04-15T03:30:57;6.00;61.20
3348;DHT22;1687;49.540;8.574;2023-04-15T03:33:23;5.80;60.20
3348;DHT22;1687;49.540;8.574;2023-04-15T03:35:50;5.70;60.90
3348;DHT22;1687;49.540;8.574;2023-04-15T03:38:16;5.60;61.10
3348;DHT22;1687;49.540;8.574;2023-04-15T03:40:42;5.50;60.90
3348;DHT22;1687;49.540;8.574;2023-04-15T03:43:08;5.40;60.80
3348;DHT22;1687;49.540;8.574;2023-04-15T03:45:34;5.50;61.60
3348;DHT22;1687;49.540;8.574;2023-04-15T03:48:00;5.60;61.90
3348;DHT22;1687;49.540;8.574;2023-04-15T03:50:25;5.60;61.60
3348;DHT22;1687;49.540;8.574;2023-04-15T03:52:52;5.60;61.60
3348;DHT22;1687;49.540;8.574;2023-04-15T03:55:17;5.70;61.80
3348;DHT22;1687;49.540;8.574;2023-04-15T03:57:44;5.80;62.00
3348;DHT22;1687;49.540;8.574;2023-04-15T04:00:10;5.80;61.90
3348;DHT22;1687;49.540;8.574;2023-04-15T04:02:36;5.80;61.90
3348;DHT22;1687;49.540;8.574;2023-04-15T04:05:02;5.80;61.60
3348;DHT22;1687;49.540;8.574;2023-04-15T04:07:28;5.80;62.00
3348;DHT22;1687;49.540;8.574;2023-04-15T04:09:56;5.90;62.10
3348;DHT22;1687;49.540;8.574;2023-04-15T04:12:22;5.90;62.00
3348;DHT22;1687;49.540;8.574;2023-04-15T04:14:47;5.90;61.90
3348;DHT22;1687;49.540;8.574;2023-04-15T04:17:13;5.80;62.40
3348;DHT22;1687;49.540;8.574;2023-04-15T04:19:39;5.80;61.70
3348;DHT22;1687;49.540;8.574;2023-04-15T04:22:05;5.70;62.00
3348;DHT22;1687;49.540;8.574;2023-04-15T04:24:31;5.80;62.40
3348;DHT22;1687;49.540;8.574;2023-04-15T04:26:56;5.70;61.50
3348;DHT22;1687;49.540;8.574;2023-04-15T04:29:22;5.50;61.40
3348;DHT22;1687;49.540;8.574;2023-04-15T04:31:48;5.40;61.50
3348;DHT22;1687;49.540;8.574;2023-04-15T04:34:14;5.40;61.90
3348;DHT22;1687;49.540;8.574;2023-04-15T04:36:40;5.40;62.10
3348;DHT22;1687;49.540;8.574;2023-04-15T04:39:06;5.30;61.90
3348;DHT22;1687;49.540;8.574;2023-04-15T04:41:32;5.20;62.10
3348;DHT22;1687;49.540;8.574;2023-04-15T04:43:58;5.40;62.70
3348;DHT22;1687;49.540;8.574;2023-04-15T04:46:24;5.40;62.40
3348;DHT22;1687;49.540;8.574;2023-04-15T04:48:49;5.40;62.60
3348;DHT22;1687;49.540;8.574;2023-04-15T04:51:15;5.40;62.60
3348;DHT22;1687;49.540;8.574;2023-04-15T04:53:41;5.60;63.10
3348;DHT22;1687;49.540;8.574;2023-04-15T04:56:07;5.70;63.30
3348;DHT22;1687;49.540;8.574;2023-04-15T04:58:33;5.80;63.30
3348;DHT22;1687;49.540;8.574;2023-04-15T05:00:59;5.90;63.30
3348;DHT22;1687;49.540;8.574;2023-04-15T05:03:25;6.00;63.10
3348;DHT22;1687;49.540;8.574;2023-04-15T05:05:50;6.00;63.20
3348;DHT22;1687;49.540;8.574;2023-04-15T05:08:16;6.00;63.20
3348;DHT22;1687;49.540;8.574;2023-04-15T05:10:42;6.00;63.30
3348;DHT22;1687;49.540;8.574;2023-04-15T05:13:07;6.00;62.90
3348;DHT22;1687;49.540;8.574;2023-04-15T05:15:33;5.90;62.90
3348;DHT22;1687;49.540;8.574;2023-04-15T05:18:01;5.90;63.30
3348;DHT22;1687;49.540;8.574;2023-04-15T05:20:27;5.90;62.90
3348;DHT22;1687;49.540;8.574;2023-04-15T05:22:53;5.90;63.40
3348;DHT22;1687;49.540;8.574;2023-04-15T05:25:18;6.00;63.50
3348;DHT22;1687;49.540;8.574;2023-04-15T05:27:44;5.90;63.10
3348;DHT22;1687;49.540;8.574;2023-04-15T05:30:10;5.80;63.10
3348;DHT22;1687;49.540;8.574;2023-04-15T05:32:36;5.80;63.50
3348;DHT22;1687;49.540;8.574;2023-04-15T05:35:02;5.90;63.50
3348;DHT22;1687;49.540;8.574;2023-04-15T05:37:27;5.90;63.20
3348;DHT22;1687;49.540;8.574;2023-04-15T05:39:53;5.90;63.20
3348;DHT22;1687;49.540;8.574;2023-04-15T05:42:19;5.90;63.30
3348;DHT22;1687;49.540;8.574;2023-04-15T05:44:44;5.90;63.50
3348;DHT22;1687;49.540;8.574;2023-04-15T05:47:10;5.90;63.40
3348;DHT22;1687;49.540;8.574;2023-04-15T05:49:36;6.00;63.90
3348;DHT22;1687;49.540;8.574;2023-04-15T05:52:02;6.10;64.10
3348;DHT22;1687;49.540;8.574;2023-04-15T05:54:28;6.10;63.60
3348;DHT22;1687;49.540;8.574;2023-04-15T05:56:53;6.10;63.50
3348;DHT22;1687;49.540;8.574;2023-04-15T05:59:19;6.00;63.60
3348;DHT22;1687;49.540;8.574;2023-04-15T06:01:45;6.00;63.70
3348;DHT22;1687;49.540;8.574;2023-04-15T06:04:10;6.20;64.00
3348;DHT22;1687;49.540;8.574;2023-04-15T06:06:36;6.20;64.00
3348;DHT22;1687;49.540;8.574;2023-04-15T06:09:03;6.30;64.00
3348;DHT22;1687;49.540;8.574;2023-04-15T06:11:29;6.40;64.40
3348;DHT22;1687;49.540;8.574;2023-04-15T06:13:55;6.50;64.70
3348;DHT22;1687;49.540;8.574;2023-04-15T06:16:21;6.70;64.70
3348;DHT22;1687;49.540;8.574;2023-04-15T06:18:47;6.80;64.90
3348;DHT22;1687;49.540;8.574;2023-04-15T06:21:13;7.00;64.80
3348;DHT22;1687;49.540;8.574;2023-04-15T06:23:39;7.00;64.80
3348;DHT22;1687;49.540;8.574;2023-04-15T06:26:06;7.20;65.30
3348;DHT22;1687;49.540;8.574;2023-04-15T06:28:31;7.40;65.60
3348;DHT22;1687;49.540;8.574;2023-04-15T06:30:57;7.70;65.60
3348;DHT22;1687;49.540;8.574;2023-04-15T06:33:23;7.90;65.80
3348;DHT22;1687;49.540;8.574;2023-04-15T06:35:48;8.10;65.80
3348;DHT22;1687;49.540;8.574;2023-04-15T06:38:15;8.20;65.50
3348;DHT22;1687;49.540;8.574;2023-04-15T06:40:40;8.30;65.70
3348;DHT22;1687;49.540;8.574;2023-04-15T06:43:06;8.30;65.40
3348;DHT22;1687;49.540;8.574;2023-04-15T06:45:33;8.40;66.30
3348;DHT22;1687;49.540;8.574;2023-04-15T06:47:59;8.50;65.80
3348;DHT22;1687;49.540;8.574;2023-04-15T06:50:25;8.60;66.00
3348;DHT22;1687;49.540;8.574;2023-04-15T06:52:52;8.70;65.90
3348;DHT22;1687;49.540;8.574;2023-04-15T06:55:18;8.70;65.70
3348;DHT22;1687;49.540;8.574;2023-04-15T06:57:44;8.70;65.90
3348;DHT22;1687;49.540;8.574;2023-04-15T07:00:10;8.80;66.00
3348;DHT22;1687;49.540;8.574;2023-04-15T07:02:36;8.90;66.40
3348;DHT22;1687;49.540;8.574;2023-04-15T07:05:03;9.00;66.30
3348;DHT22;1687;49.540;8.574;2023-04-15T07:07:29;9.10;66.30
3348;DHT22;1687;49.540;8.574;2023-04-15T07:09:55;9.10;65.90
3348;DHT22;1687;49.540;8.574;2023-04-15T07:12:21;9.20;66.30
3348;DHT22;1687;49.540;8.574;2023-04-15T07:14:47;9.20;66.10
3348;DHT22;1687;49.540;8.574;2023-04-15T07:17:13;9.30;66.20
3348;DHT22;1687;49.540;8.574;2023-04-15T07:19:39;9.30;65.90
3348;DHT22;1687;49.540;8.574;2023-04-15T07:22:05;9.30;66.10
3348;DHT22;1687;49.540;8.574;2023-04-15T07:24:30;9.20;65.60
3348;DHT22;1687;49.540;8.574;2023-04-15T07:26:56;9.10;65.70
3348;DHT22;1687;49.540;8.574;2023-04-15T07:29:23;9.10;66.10
3348;DHT22;1687;49.540;8.574;2023-04-15T07:31:49;9.30;66.50
3348;DHT22;1687;49.540;8.574;2023-04-15T07:34:14;9.50;66.50
3348;DHT22;1687;49.540;8.574;2023-04-15T07:36:41;9.60;66.40
3348;DHT22;1687;49.540;8.574;2023-04-15T07:39:07;9.70;66.40
3348;DHT22;1687;49.540;8.574;2023-04-15T07:41:33;9.80;66.40
3348;DHT22;1687;49.540;8.574;2023-04-15T07:43:59;9.80;66.20
3348;DHT22;1687;49.540;8.574;2023-04-15T07:46:24;9.80;66.20
3348;DHT22;1687;49.540;8.574;2023-04-15T07:48:52;9.90;66.40
3348;DHT22;1687;49.540;8.574;2023-04-15T07:51:19;10.00;65.50
3348;DHT22;1687;49.540;8.574;2023-04-15T07:53:46;10.20;65.50
3348;DHT22;1687;49.540;8.574;2023-04-15T07:56:13;10.30;65.50
3348;DHT22;1687;49.540;8.574;2023-04-15T07:58:38;10.50;65.40
3348;DHT22;1687;49.540;8.574;2023-04-15T08:01:04;10.70;65.60
3348;DHT22;1687;49.540;8.574;2023-04-15T08:03:30;10.90;65.70
3348;DHT22;1687;49.540;8.574;2023-04-15T08:05:56;11.00;65.20
3348;DHT22;1687;49.540;8.574;2023-04-15T08:08:22;11.10;65.40
3348;DHT22;1687;49.540;8.574;2023-04-15T08:10:48;11.30;65.70
3348;DHT22;1687;49.540;8.574;2023-04-15T08:13:14;11.50;65.50
3348;DHT22;1687;49.540;8.574;2023-04-15T08:15:40;11.50;65.10
3348;DHT22;1687;49.540;8.574;2023-04-15T08:18:06;11.60;65.30
3348;DHT22;1687;49.540;8.574;2023-04-15T08:20:32;11.60;65.10
3348;DHT22;1687;49.540;8.574;2023-04-15T08:22:58;11.60;64.90
3348;DHT22;1687;49.540;8.574;2023-04-15T08:25:23;11.70;65.00
3348;DHT22;1687;49.540;8.574;2023-04-15T08:27:49;11.90;65.40
3348;DHT22;1687;49.540;8.574;2023-04-15T08:30:15;12.10;65.20
3348;DHT22;1687;49.540;8.574;2023-04-15T08:32:50;12.20;64.80
3348;DHT22;1687;49.540;8.574;2023-04-15T08:35:16;12.40;64.80
3348;DHT22;1687;49.540;8.574;2023-04-15T08:37:41;12.60;65.10
3348;DHT22;1687;49.540;8.574;2023-04-15T08:40:08;12.80;64.70
3348;DHT22;1687;49.540;8.574;2023-04-15T08:42:44;12.90;64.40
3348;DHT22;1687;49.540;8.574;2023-04-15T08:45:13;13.10;64.40
3348;DHT22;1687;49.540;8.574;2023-04-15T08:47:39;13.30;64.80
3348;DHT22;1687;49.540;8.574;2023-04-15T08:50:09;13.30;63.60
3348;DHT22;1687;49.540;8.574;2023-04-15T08:52:36;13.50;64.10
3348;DHT22;1687;49.540;8.574;2023-04-15T08:55:02;13.80;64.10
3348;DHT22;1687;49.540;8.574;2023-04-15T08:57:29;14.00;63.40
3348;DHT22;1687;49.540;8.574;2023-04-15T08:59:55;14.20;63.80
3348;DHT22;1687;49.540;8.574;2023-04-15T09:02:23;14.40;63.80
3348;DHT22;1687;49.540;8.574;2023-04-15T09:04:50;14.70;63.70
3348;DHT22;1687;49.540;8.574;2023-04-15T09:07:16;15.00;63.50
3348;DHT22;1687;49.540;8.574;2023-04-15T09:09:41;15.20;63.20
3348;DHT22;1687;49.540;8.574;2023-04-15T09:12:08;15.30;62.90
3348;DHT22;1687;49.540;8.574;2023-04-15T09:14:37;15.40;63.00
3348;DHT22;1687;49.540;8.574;2023-04-15T09:17:05;15.60;62.60
3348;DHT22;1687;49.540;8.574;2023-04-15T09:19:31;15.70;62.70
3348;DHT22;1687;49.540;8.574;2023-04-15T09:21:59;15.80;62.50
3348;DHT22;1687;49.540;8.574;2023-04-15T09:24:27;16.00;62.50
3348;DHT22;1687;49.540;8.574;2023-04-15T09:27:03;16.00;62.00
3348;DHT22;1687;49.540;8.574;2023-04-15T09:29:29;16.00;61.50
3348;DHT22;1687;49.540;8.574;2023-04-15T09:31:55;15.90;61.30
3348;DHT22;1687;49.540;8.574;2023-04-15T09:34:34;15.90;61.30
3348;DHT22;1687;49.540;8.574;2023-04-15T09:37:01;15.90;61.20
3348;DHT22;1687;49.540;8.574;2023-04-15T09:39:27;15.90;60.70
3348;DHT22;1687;49.540;8.574;2023-04-15T09:42:13;15.90;60.30
3348;DHT22;1687;49.540;8.574;2023-04-15T09:44:39;15.90;60.30
3348;DHT22;1687;49.540;8.574;2023-04-15T09:47:04;15.90;60.10
3348;DHT22;1687;49.540;8.574;2023-04-15T09:49:30;15.80;59.90
3348;DHT22;1687;49.540;8.574;2023-04-15T09:52:00;15.90;60.10
3348;DHT22;1687;49.540;8.574;2023-04-15T09:54:34;16.20;60.10
3348;DHT22;1687;49.540;8.574;2023-04-15T09:57:05;16.50;60.20
3348;DHT22;1687;49.540;8.574;2023-04-15T09:59:35;16.70;59.90
3348;DHT22;1687;49.540;8.574;2023-04-15T10:02:04;16.80;59.50
3348;DHT22;1687;49.540;8.574;2023-04-15T10:04:34;16.90;59.50
3348;DHT22;1687;49.540;8.574;2023-04-15T10:07:03;16.90;59.00
3348;DHT22;1687;49.540;8.574;2023-04-15T10:09:29;16.80;58.60
3348;DHT22;1687;49.540;8.574;2023-04-15T10:11:56;16.50;58.20
3348;DHT22;1687;49.540;8.574;2023-04-15T10:14:23;16.40;58.30
3348;DHT22;1687;49.540;8.574;2023-04-15T10:16:50;16.40;58.00
3348;DHT22;1687;49.540;8.574;2023-04-15T10:19:19;16.30;57.90
3348;DHT22;1687;49.540;8.574;2023-04-15T10:21:48;16.20;57.70
3348;DHT22;1687;49.540;8.574;2023-04-15T10:24:14;16.10;57.40
3348;DHT22;1687;49.540;8.574;2023-04-15T10:26:41;16.10;57.20
3348;DHT22;1687;49.540;8.574;2023-04-15T10:29:07;16.30;57.30
3348;DHT22;1687;49.540;8.574;2023-04-15T10:31:34;16.40;57.00
3348;DHT22;1687;49.540;8.574;2023-04-15T10:34:02;16.60;57.20
3348;DHT22;1687;49.540;8.574;2023-04-15T10:36:31;16.70;56.80
3348;DHT22;1687;49.540;8.574;2023-04-15T10:38:57;16.70;56.40
3348;DHT22;1687;49.540;8.574;2023-04-15T10:41:25;16.60;56.00
3348;DHT22;1687;49.540;8.574;2023-04-15T10:44:03;16.50;56.00
3348;DHT22;1687;49.540;8.574;2023-04-15T10:46:39;16.40;55.80
3348;DHT22;1687;49.540;8.574;2023-04-15T10:49:11;16.40;55.90
3348;DHT22;1687;49.540;8.574;2023-04-15T10:51:43;16.50;55.80
3348;DHT22;1687;49.540;8.574;2023-04-15T10:54:30;16.50;55.80
3348;DHT22;1687;49.540;8.574;2023-04-15T10:59:31;16.60;55.30
3348;DHT22;1687;49.540;8.574;2023-04-15T11:02:03;16.50;55.00
3348;DHT22;1687;49.540;8.574;2023-04-15T11:04:55;16.50;55.00
3348;DHT22;1687;49.540;8.574;2023-04-15T11:13:00;16.40;54.30
3348;DHT22;1687;49.540;8.574;2023-04-15T11:15:38;16.40;54.10
3348;DHT22;1687;49.540;8.574;2023-04-15T11:21:06;16.30;53.40
3348;DHT22;1687;49.540;8.574;2023-04-15T11:23:37;16.20;53.40
3348;DHT22;1687;49.540;8.574;2023-04-15T11:26:06;16.30;53.50
3348;DHT22;1687;49.540;8.574;2023-04-15T11:28:41;16.20;53.10
3348;DHT22;1687;49.540;8.574;2023-04-15T11:31:12;16.10;52.80
3348;DHT22;1687;49.540;8.574;2023-04-15T11:33:58;16.00;52.90
3348;DHT22;1687;49.540;8.574;2023-04-15T11:36:28;16.10;53.10
3348;DHT22;1687;49.540;8.574;2023-04-15T11:38:55;16.10;52.80
3348;DHT22;1687;49.540;8.574;2023-04-15T11:41:22;16.10;52.60
3348;DHT22;1687;49.540;8.574;2023-04-15T11:43:49;16.10;52.60
3348;DHT22;1687;49.540;8.574;2023-04-15T11:46:16;16.20;52.60
3348;DHT22;1687;49.540;8.574;2023-04-15T11:48:43;16.30;52.60
3348;DHT22;1687;49.540;8.574;2023-04-15T11:51:11;16.30;52.40
3348;DHT22;1687;49.540;8.574;2023-04-15T11:53:42;16.30;52.30
3348;DHT22;1687;49.540;8.574;2023-04-15T11:56:23;16.50;52.50
3348;DHT22;1687;49.540;8.574;2023-04-15T11:58:54;16.70;52.50
3348;DHT22;1687;49.540;8.574;2023-04-15T12:01:35;16.90;52.50
3348;DHT22;1687;49.540;8.574;2023-04-15T12:04:17;17.30;52.70
3348;DHT22;1687;49.540;8.574;2023-04-15T12:06:48;17.60;52.70
3348;DHT22;1687;49.540;8.574;2023-04-15T12:09:17;17.60;51.80
3348;DHT22;1687;49.540;8.574;2023-04-15T12:11:48;17.60;52.20
3348;DHT22;1687;49.540;8.574;2023-04-15T12:16:58;17.50;51.80
3348;DHT22;1687;49.540;8.574;2023-04-15T12:19:33;17.60;52.10
3348;DHT22;1687;49.540;8.574;2023-04-15T12:22:14;17.50;51.70
3348;DHT22;1687;49.540;8.574;2023-04-15T12:24:42;17.20;51.30
3348;DHT22;1687;49.540;8.574;2023-04-15T12:27:14;17.10;51.50
3348;DHT22;1687;49.540;8.574;2023-04-15T12:29:41;16.90;51.50
3348;DHT22;1687;49.540;8.574;2023-04-15T12:32:09;16.90;51.40
3348;DHT22;1687;49.540;8.574;2023-04-15T12:34:38;16.80;51.20
3348;DHT22;1687;49.540;8.574;2023-04-15T12:37:14;16.70;50.80
3348;DHT22;1687;49.540;8.574;2023-04-15T12:39:42;16.50;50.70
3348;DHT22;1687;49.540;8.574;2023-04-15T12:42:09;16.30;50.50
3348;DHT22;1687;49.540;8.574;2023-04-15T12:44:36;16.20;50.50
3348;DHT22;1687;49.540;8.574;2023-04-15T12:47:03;16.10;50.20
3348;DHT22;1687;49.540;8.574;2023-04-15T12:49:30;16.10;50.10
3348;DHT22;1687;49.540;8.574;2023-04-15T12:51:58;16.10;50.10
3348;DHT22;1687;49.540;8.574;2023-04-15T12:54:25;16.20;50.10
3348;DHT22;1687;49.540;8.574;2023-04-15T12:56:52;16.10;49.70
3348;DHT22;1687;49.540;8.574;2023-04-15T12:59:18;16.10;49.60
3348;DHT22;1687;49.540;8.574;2023-04-15T13:01:45;16.20;49.60
3348;DHT22;1687;49.540;8.574;2023-04-15T13:04:12;16.20;49.30
3348;DHT22;1687;49.540;8.574;2023-04-15T13:06:38;16.10;49.10
3348;DHT22;1687;49.540;8.574;2023-04-15T13:09:04;16.20;49.20
3348;DHT22;1687;49.540;8.574;2023-04-15T13:11:30;16.10;49.00
3348;DHT22;1687;49.540;8.574;2023-04-15T13:13:59;16.10;49.10
3348;DHT22;1687;49.540;8.574;2023-04-15T13:16:25;16.10;48.90
3348;DHT22;1687;49.540;8.574;2023-04-15T13:18:51;16.00;48.90
3348;DHT22;1687;49.540;8.574;2023-04-15T13:21:17;16.00;48.80
3348;DHT22;1687;49.540;8.574;2023-04-15T13:23:43;15.90;48.80
3348;DHT22;1687;49.540;8.574;2023-04-15T13:26:09;15.80;48.90
3348;DHT22;1687;49.540;8.574;2023-04-15T13:28:35;15.90;48.90
3348;DHT22;1687;49.540;8.574;2023-04-15T13:31:01;16.00;49.10
3348;DHT22;1687;49.540;8.574;2023-04-15T13:33:29;16.10;49.10
3348;DHT22;1687;49.540;8.574;2023-04-15T13:35:55;16.20;49.30
3348;DHT22;1687;49.540;8.574;2023-04-15T13:38:23;16.30;49.40
3348;DHT22;1687;49.540;8.574;2023-04-15T13:40:49;16.20;48.90
3348;DHT22;1687;49.540;8.574;2023-04-15T13:43:15;16.00;49.10
3348;DHT22;1687;49.540;8.574;2023-04-15T13:45:42;16.00;49.30
3348;DHT22;1687;49.540;8.574;2023-04-15T13:48:08;16.00;49.50
3348;DHT22;1687;49.540;8.574;2023-04-15T13:50:34;16.00;49.50
3348;DHT22;1687;49.540;8.574;2023-04-15T13:52:59;16.10;49.70
3348;DHT22;1687;49.540;8.574;2023-04-15T13:55:25;16.10;49.90
3348;DHT22;1687;49.540;8.574;2023-04-15T13:57:51;16.20;50.10
3348;DHT22;1687;49.540;8.574;2023-04-15T14:00:17;16.20;50.10
3348;DHT22;1687;49.540;8.574;2023-04-15T14:02:43;16.00;50.20
3348;DHT22;1687;49.540;8.574;2023-04-15T14:05:09;16.00;50.30
3348;DHT22;1687;49.540;8.574;2023-04-15T14:07:35;15.80;50.40
3348;DHT22;1687;49.540;8.574;2023-04-15T14:10:01;15.60;50.50
3348;DHT22;1687;49.540;8.574;2023-04-15T14:12:27;15.50;50.80
3348;DHT22;1687;49.540;8.574;2023-04-15T14:14:53;15.50;51.10
3348;DHT22;1687;49.540;8.574;2023-04-15T14:17:19;15.60;51.60
3348;DHT22;1687;49.540;8.574;2023-04-15T14:19:44;15.70;51.90
3348;DHT22;1687;49.540;8.574;2023-04-15T14:22:10;15.70;52.10
3348;DHT22;1687;49.540;8.574;2023-04-15T14:24:36;15.50;51.80
3348;DHT22;1687;49.540;8.574;2023-04-15T14:27:02;15.40;52.40
3348;DHT22;1687;49.540;8.574;2023-04-15T14:29:27;15.20;52.40
3348;DHT22;1687;49.540;8.574;2023-04-15T14:31:53;15.10;52.80
3348;DHT22;1687;49.540;8.574;2023-04-15T14:34:21;15.10;53.00
3348;DHT22;1687;49.540;8.574;2023-04-15T14:36:49;15.00;53.30
3348;DHT22;1687;49.540;8.574;2023-04-15T14:39:16;15.00;53.40
3348;DHT22;1687;49.540;8.574;2023-04-15T14:41:42;14.80;53.40
3348;DHT22;1687;49.540;8.574;2023-04-15T14:44:07;14.70;53.90
3348;DHT22;1687;49.540;8.574;2023-04-15T14:46:36;14.60;54.10
3348;DHT22;1687;49.540;8.574;2023-04-15T14:49:02;14.50;54.50
3348;DHT22;1687;49.540;8.574;2023-04-15T14:51:28;14.40;54.60
3348;DHT22;1687;49.540;8.574;2023-04-15T14:53:53;14.30;54.90
3348;DHT22;1687;49.540;8.574;2023-04-15T14:56:20;14.30;55.10
3348;DHT22;1687;49.540;8.574;2023-04-15T14:58:45;14.20;55.30
3348;DHT22;1687;49.540;8.574;2023-04-15T15:01:12;14.10;55.60
3348;DHT22;1687;49.540;8.574;2023-04-15T15:03:37;14.00;55.70
3348;DHT22;1687;49.540;8.574;2023-04-15T15:06:03;14.00;55.80
3348;DHT22;1687;49.540;8.574;2023-04-15T15:08:29;13.80;55.80
3348;DHT22;1687;49.540;8.574;2023-04-15T15:10:55;13.80;56.30
3348;DHT22;1687;49.540;8.574;2023-04-15T15:13:21;13.70;56.10
3348;DHT22;1687;49.540;8.574;2023-04-15T15:15:46;13.50;56.30
3348;DHT22;1687;49.540;8.574;2023-04-15T15:18:14;13.50;56.60
3348;DHT22;1687;49.540;8.574;2023-04-15T15:20:41;13.40;56.80
3348;DHT22;1687;49.540;8.574;2023-04-15T15:23:07;13.40;57.10
3348;DHT22;1687;49.540;8.574;2023-04-15T15:25:32;13.30;57.20
3348;DHT22;1687;49.540;8.574;2023-04-15T15:27:58;13.40;57.70
3348;DHT22;1687;49.540;8.574;2023-04-15T15:30:24;13.30;57.60
3348;DHT22;1687;49.540;8.574;2023-04-15T15:32:50;13.30;57.90
3348;DHT22;1687;49.540;8.574;2023-04-15T15:35:16;13.30;58.10
3348;DHT22;1687;49.540;8.574;2023-04-15T15:37:41;13.30;58.40
3348;DHT22;1687;49.540;8.574;2023-04-15T15:40:09;13.20;58.90
3348;DHT22;1687;49.540;8.574;2023-04-15T15:42:36;13.20;58.70
3348;DHT22;1687;49.540;8.574;2023-04-15T15:45:03;13.10;58.80
3348;DHT22;1687;49.540;8.574;2023-04-15T15:47:29;13.10;59.00
3348;DHT22;1687;49.540;8.574;2023-04-15T15:49:55;13.10;59.20
3348;DHT22;1687;49.540;8.574;2023-04-15T15:52:20;13.20;59.60
3348;DHT22;1687;49.540;8.574;2023-04-15T15:54:46;13.10;59.50
3348;DHT22;1687;49.540;8.574;2023-04-15T15:57:12;13.10;59.60
3348;DHT22;1687;49.540;8.574;2023-04-15T15:59:38;13.10;59.90
3348;DHT22;1687;49.540;8.574;2023-04-15T16:02:12;12.90;59.50
3348;DHT22;1687;49.540;8.574;2023-04-15T16:04:41;12.70;59.80
3348;DHT22;1687;49.540;8.574;2023-04-15T16:07:08;12.70;60.10
3348;DHT22;1687;49.540;8.574;2023-04-15T16:09:35;12.60;60.30
3348;DHT22;1687;49.540;8.574;2023-04-15T16:12:00;12.60;60.50
3348;DHT22;1687;49.540;8.574;2023-04-15T16:14:28;12.50;60.60
3348;DHT22;1687;49.540;8.574;2023-04-15T16:16:53;12.40;60.90
3348;DHT22;1687;49.540;8.574;2023-04-15T16:19:20;12.40;61.30
3348;DHT22;1687;49.540;8.574;2023-04-15T16:21:45;12.40;61.20